Time;durP1;ratioP1;P1;durP2;ratioP2;P2;SDS_P1;SDS_P2;PMS_P1;PMS_P2;Temp;Humidity;BMP_temperature;BMP_pressure;BME280_temperature;BME280_humidity;BME280_pressure;Samples;Min_cycle;Max_cycle;Signal;HPM_P1;HPM_P2
2022/06/13 00:00:12;;;;;;;5.97;2.40;;;;;;;13.80;84.57;101256.16;698063;28;1478;-45
2022/06/13 00:00:33;;;;;;;5.65;2.25;;;;;;;13.78;85.40;101257.94;700839;28;1294;-45
2022/06/13 00:00:53;;;;;;;5.43;2.20;;;;;;;13.74;84.15;101257.09;701189;28;1134;-44
2022/06/13 00:01:19;;;;;;;7.03;2.30;;;;;;;13.74;83.79;101251.84;700917;28;1210;-45
2022/06/13 00:01:39;;;;;;;6.65;2.20;;;;;;;13.77;83.87;101257.06;700966;28;982;-44
2022/06/13 00:01:59;;;;;;;5.30;2.20;;;;;;;13.76;85.42;101255.34;700709;28;4257;-45
2022/06/13 00:02:20;;;;;;;6.47;2.30;;;;;;;13.74;85.74;101254.47;699943;28;967;-44
2022/06/13 00:02:40;;;;;;;6.68;2.50;;;;;;;13.68;84.75;101254.53;700629;28;1340;-45
2022/06/13 00:03:01;;;;;;;6.00;2.60;;;;;;;13.65;85.29;101245.78;699338;28;1400;-46
2022/06/13 00:03:21;;;;;;;7.05;2.53;;;;;;;13.58;85.36;101251.09;701246;28;1367;-45
2022/06/13 00:03:42;;;;;;;6.63;2.40;;;;;;;13.58;85.41;101256.34;700832;28;1290;-44
2022/06/13 00:04:04;;;;;;;5.53;2.30;;;;;;;13.59;85.44;101250.19;701574;28;1521;-45
2022/06/13 00:04:24;;;;;;;7.05;2.30;;;;;;;13.60;84.15;101253.72;698772;28;1475;-44
2022/06/13 00:04:45;;;;;;;6.68;2.22;;;;;;;13.57;84.82;101251.97;698857;28;1527;-44
2022/06/13 00:05:08;;;;;;;5.00;2.10;;;;;;;13.56;85.06;101249.38;697117;28;5266;-45
2022/06/13 00:05:28;;;;;;;5.93;2.60;;;;;;;13.52;86.30;101252.91;698028;28;1242;-46
2022/06/13 00:05:48;;;;;;;6.55;2.45;;;;;;;13.50;85.46;101247.66;697013;28;1169;-45
2022/06/13 00:06:09;;;;;;;5.70;2.17;;;;;;;13.52;85.57;101243.25;698474;28;1177;-47
2022/06/13 00:06:30;;;;;;;4.97;2.17;;;;;;;13.53;87.27;101252.88;700096;28;1241;-44
2022/06/13 00:06:50;;;;;;;5.75;2.40;;;;;;;13.53;86.81;101250.25;699929;28;1134;-45
2022/06/13 00:07:11;;;;;;;6.10;2.50;;;;;;;13.55;86.79;101245.84;697857;28;1246;-44
2022/06/13 00:07:31;;;;;;;6.33;2.50;;;;;;;13.59;86.18;101251.97;697722;28;1242;-45
2022/06/13 00:07:52;;;;;;;6.03;2.67;;;;;;;13.59;88.23;101251.97;695527;28;4531;-43
2022/06/13 00:08:12;;;;;;;4.57;2.60;;;;;;;13.60;87.12;101254.56;696520;28;1404;-45
2022/06/13 00:08:33;;;;;;;5.47;2.35;;;;;;;13.65;86.58;101248.41;695843;28;1318;-44
2022/06/13 00:08:54;;;;;;;5.50;2.75;;;;;;;13.65;86.85;101251.91;697091;28;1418;-45
2022/06/13 00:09:14;;;;;;;5.90;2.53;;;;;;;13.66;87.58;101247.53;698309;28;1297;-44
2022/06/13 00:09:35;;;;;;;6.17;2.50;;;;;;;13.60;87.66;101249.31;698571;28;1375;-45
2022/06/13 00:09:56;;;;;;;6.03;2.35;;;;;;;13.58;87.10;101253.72;701155;28;1332;-44
2022/06/13 00:10:17;;;;;;;6.53;2.38;;;;;;;13.58;86.02;101252.84;702498;27;1676;-45
2022/06/13 00:10:37;;;;;;;6.10;2.45;;;;;;;13.60;86.74;101249.31;699927;28;1522;-44
2022/06/13 00:10:58;;;;;;;5.57;2.30;;;;;;;13.57;86.03;101253.75;700206;28;4363;-44
2022/06/13 00:11:22;;;;;;;6.70;2.33;;;;;;;13.56;85.48;101250.22;699920;28;1269;-45
2022/06/13 00:11:43;;;;;;;5.82;2.30;;;;;;;13.57;85.84;101254.59;701819;28;1447;-45
2022/06/13 00:12:04;;;;;;;4.40;2.20;;;;;;;13.55;86.41;101253.72;701359;28;1122;-44
2022/06/13 00:12:26;;;;;;;5.32;2.38;;;;;;;13.58;86.03;101251.09;701864;28;1388;-46
2022/06/13 00:12:46;;;;;;;6.10;2.47;;;;;;;13.61;85.86;101250.22;700343;28;1137;-44
2022/06/13 00:13:07;;;;;;;6.67;2.60;;;;;;;13.61;85.33;101253.69;701707;28;1098;-44
2022/06/13 00:13:27;;;;;;;5.78;2.28;;;;;;;13.61;84.82;101248.44;701084;28;1130;-45
2022/06/13 00:13:51;;;;;;;6.37;2.40;;;;;;;13.66;84.05;101253.66;702165;28;1316;-45
2022/06/13 00:14:11;;;;;;;6.53;2.70;;;;;;;13.67;84.84;101252.78;701613;28;4364;-45
2022/06/13 00:14:31;;;;;;;7.50;2.47;;;;;;;13.71;84.59;101251.00;700261;28;1221;-45
2022/06/13 00:14:52;;;;;;;6.90;2.47;;;;;;;13.73;83.83;101249.22;700401;28;968;-44
2022/06/13 00:15:14;;;;;;;6.65;2.67;;;;;;;13.74;85.30;101253.59;700841;28;1909;-45
2022/06/13 00:15:35;;;;;;;6.55;2.55;;;;;;;13.72;85.41;101251.00;701706;28;1153;-45
2022/06/13 00:15:55;;;;;;;5.03;2.40;;;;;;;13.70;86.65;101251.88;701016;28;1230;-44
2022/06/13 00:16:16;;;;;;;5.00;2.50;;;;;;;13.67;87.64;101252.78;696930;28;3841;-45
2022/06/13 00:16:37;;;;;;;5.22;2.67;;;;;;;13.68;87.63;101251.00;697399;28;1340;-46
2022/06/13 00:16:57;;;;;;;5.13;2.40;;;;;;;13.70;87.27;101249.25;697748;28;4355;-44
2022/06/13 00:17:18;;;;;;;5.87;2.30;;;;;;;13.70;86.28;101255.38;697846;28;1279;-44
2022/06/13 00:17:38;;;;;;;6.25;2.53;;;;;;;13.69;86.16;101247.50;695592;28;1277;-45
2022/06/13 00:17:59;;;;;;;5.50;2.80;;;;;;;13.71;87.03;101253.63;695214;28;1347;-44
2022/06/13 00:18:19;;;;;;;6.55;2.70;;;;;;;13.68;87.68;101248.38;699090;28;1240;-45
2022/06/13 00:18:47;;;;;;;6.07;2.53;;;;;;;13.67;87.53;101251.91;696117;28;1417;-47
2022/06/13 00:19:07;;;;;;;6.00;2.53;;;;;;;13.59;86.53;101247.56;695218;28;1261;-45
2022/06/13 00:19:28;;;;;;;4.90;2.30;;;;;;;13.58;85.82;101248.47;696485;28;1229;-45
2022/06/13 00:19:48;;;;;;;4.47;2.20;;;;;;;13.59;85.03;101244.94;698631;28;1355;-45
2022/06/13 00:20:11;;;;;;;5.97;2.20;;;;;;;13.56;85.86;101242.34;698540;28;4499;-45
2022/06/13 00:20:31;;;;;;;5.53;2.45;;;;;;;13.52;86.31;101243.25;699908;28;1186;-44
2022/06/13 00:20:53;;;;;;;6.50;2.63;;;;;;;13.52;85.75;101245.88;700979;28;1316;-45
2022/06/13 00:21:15;;;;;;;7.40;2.70;;;;;;;13.52;85.86;101243.25;700600;28;1289;-45
2022/06/13 00:21:37;;;;;;;5.45;2.30;;;;;;;13.50;86.09;101241.50;700035;28;1118;-45
2022/06/13 00:21:57;;;;;;;6.75;2.40;;;;;;;13.48;85.62;101246.78;700101;28;1483;-45
2022/06/13 00:22:18;;;;;;;7.33;2.50;;;;;;;13.45;86.02;101252.06;697917;28;1474;-45
2022/06/13 00:22:39;;;;;;;6.35;2.40;;;;;;;13.46;86.36;101243.31;698888;28;1103;-44
2022/06/13 00:23:00;;;;;;;5.22;2.25;;;;;;;13.47;86.01;101244.16;697522;28;4563;-44
2022/06/13 00:23:21;;;;;;;5.33;2.47;;;;;;;13.52;86.14;101245.88;699237;28;1158;-44
2022/06/13 00:23:41;;;;;;;7.57;2.88;;;;;;;13.53;86.18;101236.25;698953;28;1296;-46
2022/06/13 00:24:05;;;;;;;6.45;2.63;;;;;;;13.53;86.41;101238.88;700468;28;1304;-46
2022/06/13 00:24:25;;;;;;;7.25;2.38;;;;;;;13.54;86.24;101241.50;700900;28;1519;-46
2022/06/13 00:24:45;;;;;;;5.10;2.38;;;;;;;13.55;86.91;101239.72;699800;28;1670;-44
2022/06/13 00:25:07;;;;;;;7.30;2.40;;;;;;;13.58;86.07;101235.34;697663;28;1186;-45
2022/06/13 00:25:28;;;;;;;7.13;2.42;;;;;;;13.62;85.31;101230.91;697901;28;1177;-45
2022/06/13 00:25:48;;;;;;;5.03;2.20;;;;;;;13.64;85.07;101237.03;697579;28;1249;-45
2022/06/13 00:26:09;;;;;;;5.03;2.10;;;;;;;13.60;85.24;101238.81;697377;28;4318;-44
2022/06/13 00:26:32;;;;;;;5.55;2.30;;;;;;;13.57;85.61;101236.22;697982;28;1253;-45
2022/06/13 00:26:52;;;;;;;4.75;2.20;;;;;;;13.53;85.61;101237.13;697961;28;1166;-46
2022/06/13 00:27:13;;;;;;;5.50;2.40;;;;;;;13.51;85.82;101233.63;698694;28;1265;-44
2022/06/13 00:27:33;;;;;;;4.65;2.40;;;;;;;13.53;85.47;101234.50;695986;28;1197;-45
2022/06/13 00:27:53;;;;;;;6.93;2.53;;;;;;;13.56;85.38;101231.84;695409;28;1035;-45
2022/06/13 00:28:14;;;;;;;6.93;2.40;;;;;;;13.63;85.47;101236.16;695473;28;1329;-44
2022/06/13 00:28:35;;;;;;;6.23;2.70;;;;;;;13.65;84.78;101230.88;695566;28;1198;-45
2022/06/13 00:28:55;;;;;;;5.90;2.40;;;;;;;13.60;85.32;101230.94;697525;28;5354;-45
2022/06/13 00:29:16;;;;;;;6.97;2.45;;;;;;;13.58;86.37;101229.19;696274;28;1381;-45
2022/06/13 00:29:37;;;;;;;5.60;2.30;;;;;;;13.51;86.34;101230.13;694927;28;1775;-46
2022/06/13 00:29:57;;;;;;;6.55;2.53;;;;;;;13.42;86.34;101229.31;695867;28;1070;-45
2022/06/13 00:30:18;;;;;;;5.93;2.25;;;;;;;13.44;86.37;101232.81;698796;28;1201;-45
2022/06/13 00:30:38;;;;;;;4.90;2.20;;;;;;;13.41;86.35;101229.34;695952;28;1186;-45
2022/06/13 00:30:59;;;;;;;5.90;2.40;;;;;;;13.39;86.26;101231.13;696488;28;1154;-44
2022/06/13 00:31:20;;;;;;;6.72;2.50;;;;;;;13.41;86.29;101231.97;698510;28;1540;-45
2022/06/13 00:31:41;;;;;;;6.10;2.50;;;;;;;13.38;87.21;101226.75;697829;28;1440;-45
2022/06/13 00:32:01;;;;;;;6.03;2.60;;;;;;;13.33;86.72;101228.47;698503;28;4287;-45
2022/06/13 00:32:22;;;;;;;6.28;2.70;;;;;;;13.33;87.24;101228.47;698991;28;1504;-45
2022/06/13 00:32:42;;;;;;;6.23;2.40;;;;;;;13.29;87.66;101227.63;694993;28;1342;-45
2022/06/13 00:33:02;;;;;;;5.95;2.30;;;;;;;13.29;86.83;101225.88;695598;28;1290;-45
2022/06/13 00:33:23;;;;;;;6.27;2.40;;;;;;;13.27;86.49;101219.75;694825;28;1455;-46
2022/06/13 00:33:43;;;;;;;7.30;2.65;;;;;;;13.30;87.13;101224.13;694827;28;1470;-45
2022/06/13 00:34:04;;;;;;;6.33;2.50;;;;;;;13.33;86.42;101223.22;694665;28;1448;-44
2022/06/13 00:34:24;;;;;;;5.60;2.33;;;;;;;13.35;86.92;101218.84;696043;28;1459;-46
2022/06/13 00:34:46;;;;;;;6.70;2.45;;;;;;;13.36;87.50;101215.34;700004;28;1447;-45
2022/06/13 00:35:07;;;;;;;5.10;2.70;;;;;;;13.32;87.77;101221.47;699265;28;4246;-45
2022/06/13 00:35:27;;;;;;;5.32;2.38;;;;;;;13.33;87.54;101220.59;700699;28;1981;-44
2022/06/13 00:35:48;;;;;;;7.30;2.67;;;;;;;13.31;87.62;101219.75;700814;28;1091;-45
2022/06/13 00:36:08;;;;;;;6.15;2.50;;;;;;;13.29;87.46;101219.75;700545;28;1351;-45
2022/06/13 00:36:29;;;;;;;5.60;2.40;;;;;;;13.30;87.09;101221.50;699238;28;786;-45
2022/06/13 00:36:49;;;;;;;6.68;2.50;;;;;;;13.34;87.00;101220.59;701001;28;1089;-45
2022/06/13 00:37:09;;;;;;;6.20;2.50;;;;;;;13.34;87.44;101220.59;700506;28;1359;-46
2022/06/13 00:37:30;;;;;;;6.30;2.50;;;;;;;13.37;86.21;101219.72;701618;28;1177;-45
2022/06/13 00:37:50;;;;;;;4.87;2.50;;;;;;;13.40;85.84;101222.34;698670;28;1242;-45
2022/06/13 00:38:11;;;;;;;5.40;2.50;;;;;;;13.42;86.16;101220.59;698221;28;4383;-44
2022/06/13 00:38:32;;;;;;;5.97;2.43;;;;;;;13.47;85.51;101221.41;698577;28;864;-46
2022/06/13 00:38:55;;;;;;;5.80;2.50;;;;;;;13.50;85.51;101229.28;698729;28;1111;-45
2022/06/13 00:39:15;;;;;;;5.32;2.55;;;;;;;13.51;85.42;101217.84;698517;28;1524;-45
2022/06/13 00:39:36;;;;;;;4.55;2.47;;;;;;;13.53;85.37;101223.13;699640;28;1210;-45
2022/06/13 00:39:56;;;;;;;5.77;2.40;;;;;;;13.52;85.39;101222.25;701144;28;1069;-46
2022/06/13 00:40:17;;;;;;;6.07;2.55;;;;;;;13.51;85.65;101223.13;701663;28;1333;-46
2022/06/13 00:40:37;;;;;;;5.87;2.50;;;;;;;13.49;85.53;101224.91;700429;28;1269;-45
2022/06/13 00:40:58;;;;;;;6.03;2.55;;;;;;;13.48;86.02;101225.78;700236;28;4506;-45
2022/06/13 00:41:27;;;;;;;5.43;2.60;;;;;;;13.42;87.04;101226.69;699382;28;1211;-44
2022/06/13 00:41:48;;;;;;;6.20;2.60;;;;;;;13.37;87.11;101230.25;701081;28;1067;-45
2022/06/13 00:42:15;;;;;;;6.20;2.55;;;;;;;13.29;87.77;101231.13;699844;28;936;-45
2022/06/13 00:42:36;;;;;;;7.13;2.80;;;;;;;13.25;88.05;101229.41;700770;28;1266;-45
2022/06/13 00:42:56;;;;;;;7.10;2.70;;;;;;;13.24;87.56;101227.66;701092;28;1281;-45
2022/06/13 00:43:17;;;;;;;7.03;2.63;;;;;;;13.24;87.22;101230.28;700304;28;907;-44
2022/06/13 00:43:39;;;;;;;5.60;2.75;;;;;;;13.22;88.27;101234.69;699165;28;729;-46
2022/06/13 00:43:59;;;;;;;8.23;3.03;;;;;;;13.21;87.91;101227.69;699653;28;4414;-44
2022/06/13 00:44:35;;;;;;;6.73;2.77;;;;;;;13.22;87.22;101232.06;700717;28;1197;-45
2022/06/13 00:45:23;;;;;;;5.13;2.67;;;;;;;13.24;88.10;101232.91;701300;28;847;-46
2022/06/13 00:45:45;;;;;;;6.00;2.60;;;;;;;13.23;88.95;101230.31;694220;28;1107;-44
2022/06/13 00:46:21;;;;;;;4.88;2.60;;;;;;;13.20;89.54;101228.56;698718;28;1124;-44
2022/06/13 00:46:41;;;;;;;8.02;3.00;;;;;;;13.23;89.15;101228.53;697830;28;1158;-46
2022/06/13 00:47:03;;;;;;;7.15;2.95;;;;;;;13.20;89.72;101225.09;698023;28;4380;-46
2022/06/13 00:47:23;;;;;;;7.25;3.10;;;;;;;13.14;89.81;101232.97;699397;28;1413;-46
2022/06/13 00:47:46;;;;;;;6.77;2.90;;;;;;;13.08;90.19;101237.41;702637;28;1302;-46
2022/06/13 00:48:10;;;;;;;6.97;2.88;;;;;;;13.07;90.31;101230.41;703555;28;1289;-44
2022/06/13 00:48:32;;;;;;;6.43;2.92;;;;;;;13.04;89.77;101226.91;703562;28;1359;-45
2022/06/13 00:49:06;;;;;;;6.95;3.20;;;;;;;13.04;90.06;101222.56;701187;28;1322;-45
2022/06/13 00:49:38;;;;;;;5.82;2.80;;;;;;;12.95;90.97;101223.47;701344;28;1267;-45
2022/06/13 00:50:01;;;;;;;6.90;2.95;;;;;;;12.89;90.27;101223.50;699921;28;4519;-44
2022/06/13 00:50:37;;;;;;;6.55;3.35;;;;;;;12.93;89.65;101222.63;702146;28;1357;-45
2022/06/13 00:51:00;;;;;;;6.10;2.80;;;;;;;12.98;89.59;101232.22;700610;28;1129;-44
2022/06/13 00:51:21;;;;;;;5.97;2.60;;;;;;;12.98;89.65;101229.59;699818;28;1422;-45
2022/06/13 00:51:48;;;;;;;6.10;2.50;;;;;;;13.05;89.14;101228.66;701373;28;1213;-45
2022/06/13 00:52:17;;;;;;;6.05;2.65;;;;;;;13.11;89.47;101228.63;699789;28;1154;-46
2022/06/13 00:52:47;;;;;;;6.28;2.67;;;;;;;13.20;88.30;101228.56;700829;28;1316;-46
2022/06/13 00:53:23;;;;;;;6.30;2.85;;;;;;;13.24;88.35;101224.19;699547;28;4448;-45
2022/06/13 00:53:44;;;;;;;7.78;2.90;;;;;;;13.15;88.78;101225.09;700685;28;1309;-46
2022/06/13 00:54:05;;;;;;;7.22;2.70;;;;;;;13.09;89.62;101225.16;699398;28;1345;-44
2022/06/13 00:54:26;;;;;;;6.22;2.80;;;;;;;13.10;88.53;101233.00;701240;28;1340;-44
2022/06/13 00:54:48;;;;;;;5.20;2.60;;;;;;;13.07;88.90;101230.41;694588;28;989;-45
2022/06/13 00:55:15;;;;;;;5.53;2.47;;;;;;;13.08;89.27;101228.63;693626;28;1179;-44
2022/06/13 00:55:46;;;;;;;6.32;2.78;;;;;;;13.02;89.18;101233.94;696214;28;773;-45
2022/06/13 00:56:15;;;;;;;6.18;2.42;;;;;;;12.95;89.11;101227.84;695153;28;4416;-45
2022/06/13 00:56:36;;;;;;;6.50;2.80;;;;;;;12.97;88.91;101231.31;696764;28;947;-44
2022/06/13 00:56:57;;;;;;;7.13;3.42;;;;;;;12.95;88.33;101231.34;701494;28;1312;-45
2022/06/13 00:57:21;;;;;;;7.03;2.80;;;;;;;12.91;89.29;101226.97;700715;28;1320;-45
2022/06/13 00:57:42;;;;;;;7.60;2.75;;;;;;;12.88;89.21;101221.75;700949;28;1208;-45
2022/06/13 00:58:04;;;;;;;6.27;2.63;;;;;;;12.90;88.95;101224.38;699832;28;863;-45
2022/06/13 00:58:25;;;;;;;5.20;2.80;;;;;;;12.93;89.77;101227.88;700652;28;883;-45
2022/06/13 00:58:54;;;;;;;5.70;2.90;;;;;;;12.89;89.93;101228.75;700457;28;1518;-47
2022/06/13 00:59:18;;;;;;;6.20;2.85;;;;;;;12.81;91.21;101230.53;697820;28;6598;-45
2022/06/13 00:59:39;;;;;;;6.93;2.95;;;;;;;12.78;91.02;101223.56;701450;28;1627;-46
2022/06/13 01:00:05;;;;;;;6.68;2.88;;;;;;;12.73;91.83;101219.22;703011;28;1290;-46
2022/06/13 01:00:27;;;;;;;7.43;2.95;;;;;;;12.69;92.44;101220.09;701231;28;1460;-45
2022/06/13 01:00:52;;;;;;;5.85;2.70;;;;;;;12.65;92.92;101223.63;700662;28;1373;-44
2022/06/13 01:01:13;;;;;;;6.60;2.80;;;;;;;12.67;92.15;101221.84;700241;28;1335;-45
2022/06/13 01:01:33;;;;;;;5.40;2.70;;;;;;;12.64;91.70;101222.78;698860;28;1422;-45
2022/06/13 01:01:54;;;;;;;6.68;2.85;;;;;;;12.64;92.46;101221.88;697609;28;5133;-44
2022/06/13 01:02:15;;;;;;;8.20;3.00;;;;;;;12.62;92.70;101221.03;698509;28;1142;-45
2022/06/13 01:02:40;;;;;;;6.68;3.05;;;;;;;12.62;92.08;101223.66;698771;28;827;-45
2022/06/13 01:03:02;;;;;;;7.00;2.60;;;;;;;12.63;92.57;101218.41;701676;28;1151;-45
2022/06/13 01:03:25;;;;;;;6.40;2.85;;;;;;;12.60;93.04;101221.91;700875;28;1131;-44
2022/06/13 01:03:46;;;;;;;7.25;3.00;;;;;;;12.59;92.04;101222.75;701865;28;1435;-45
2022/06/13 01:04:08;;;;;;;6.90;2.95;;;;;;;12.59;91.32;101220.16;701228;28;832;-44
2022/06/13 01:04:28;;;;;;;6.03;3.15;;;;;;;12.59;92.89;101220.16;698517;28;2036;-45
2022/06/13 01:04:52;;;;;;;6.38;3.20;;;;;;;12.61;91.90;101220.13;698388;28;1107;-44
2022/06/13 01:05:17;;;;;;;5.45;2.75;;;;;;;12.66;92.29;101214.88;695771;28;4976;-44
2022/06/13 01:05:42;;;;;;;6.63;2.75;;;;;;;12.65;92.03;101216.63;696902;28;1090;-44
2022/06/13 01:06:06;;;;;;;7.28;3.00;;;;;;;12.68;92.01;101213.13;695638;28;1479;-45
2022/06/13 01:06:27;;;;;;;5.90;2.70;;;;;;;12.68;92.30;101214.00;698180;28;1179;-45
2022/06/13 01:06:50;;;;;;;6.38;2.80;;;;;;;12.71;91.47;101215.72;698503;28;1281;-46
2022/06/13 01:07:10;;;;;;;5.72;2.70;;;;;;;12.69;91.30;101214.88;699313;28;1353;-45
2022/06/13 01:07:32;;;;;;;7.47;2.80;;;;;;;12.66;91.44;101214.88;699035;28;1693;-44
2022/06/13 01:07:54;;;;;;;7.65;2.80;;;;;;;12.64;92.02;101212.28;699192;28;4767;-45
2022/06/13 01:08:16;;;;;;;5.45;2.80;;;;;;;12.68;90.63;101216.63;699064;28;1257;-44
2022/06/13 01:08:38;;;;;;;6.15;2.65;;;;;;;12.67;92.97;101211.38;699080;28;1013;-44
2022/06/13 01:09:02;;;;;;;6.63;2.80;;;;;;;12.70;92.34;101217.47;699217;28;1134;-45
2022/06/13 01:11:29;;;;;;;4.85;2.45;;;;;;;12.68;93.00;101220.97;700730;28;5049;-46
2022/06/13 01:11:52;;;;;;;5.22;2.65;;;;;;;12.57;94.36;101215.78;700861;28;1231;-45
2022/06/13 01:12:14;;;;;;;5.70;2.90;;;;;;;12.52;92.31;101225.44;701708;28;1254;-44
2022/06/13 01:12:37;;;;;;;5.68;2.72;;;;;;;12.56;92.97;101225.41;700827;28;3873;-44
2022/06/13 01:12:58;;;;;;;5.75;2.55;;;;;;;12.57;92.92;101219.28;702016;28;1594;-45
2022/06/13 01:13:19;;;;;;;5.57;2.63;;;;;;;12.59;93.05;101217.53;701035;28;1027;-44
2022/06/13 01:13:55;;;;;;;6.10;2.72;;;;;;;12.57;93.21;101221.03;700148;28;1380;-44
2022/06/13 01:14:28;;;;;;;7.35;2.88;;;;;;;12.61;92.23;101222.75;701153;28;4706;-44
2022/06/13 01:15:26;;;;;;;5.88;2.55;;;;;;;12.58;93.19;101226.25;700402;28;1173;-44
2022/06/13 01:16:26;;;;;;;5.78;2.80;;;;;;;12.62;93.05;101226.28;691231;28;1528;-45
2022/06/13 01:17:07;;;;;;;5.72;2.90;;;;;;;12.54;93.51;101224.53;694411;28;1425;-45
2022/06/13 01:18:01;;;;;;;5.45;2.80;;;;;;;12.54;94.11;101221.91;698764;28;5080;-45
2022/06/13 01:18:27;;;;;;;5.82;2.60;;;;;;;12.56;94.42;101225.41;699515;28;1329;-44
2022/06/13 01:19:15;;;;;;;6.63;2.60;;;;;;;12.57;94.50;101226.25;700602;28;975;-44
2022/06/13 01:20:10;;;;;;;6.55;2.92;;;;;;;12.60;92.74;101229.75;702075;28;1313;-45
2022/06/13 01:20:36;;;;;;;6.03;2.50;;;;;;;12.54;92.61;101232.41;699514;28;5339;-44
2022/06/13 01:21:35;;;;;;;6.10;2.63;;;;;;;12.50;94.78;101225.44;700715;28;1338;-45
2022/06/13 01:22:26;;;;;;;4.82;2.70;;;;;;;12.40;94.96;101226.34;699337;28;1159;-44
2022/06/13 01:23:08;;;;;;;7.25;2.90;;;;;;;12.31;94.81;101228.97;699411;28;1181;-46
2022/06/13 01:23:59;;;;;;;5.30;2.72;;;;;;;12.35;94.94;101217.59;700908;28;4727;-45
2022/06/13 01:24:55;;;;;;;5.43;2.60;;;;;;;12.39;94.11;101222.84;699702;28;1308;-45
2022/06/13 01:25:25;;;;;;;5.70;2.80;;;;;;;12.41;94.32;101220.22;700713;28;1260;-45
2022/06/13 01:26:16;;;;;;;5.45;2.60;;;;;;;12.50;93.02;101220.19;700650;28;1450;-45
2022/06/13 01:27:10;;;;;;;6.05;2.50;;;;;;;12.55;92.50;101222.78;701631;28;4694;-44
2022/06/13 01:27:44;;;;;;;6.50;2.88;;;;;;;12.51;94.68;101227.16;699937;28;1226;-46
2022/06/13 01:28:42;;;;;;;6.07;3.13;;;;;;;12.30;95.05;101219.41;700897;28;1388;-44
2022/06/13 01:29:30;;;;;;;5.30;2.72;;;;;;;12.26;95.87;101222.00;699821;28;4341;-47
2022/06/13 01:29:58;;;;;;;5.13;2.63;;;;;;;12.33;95.14;101222.84;700887;28;1109;-44
2022/06/13 01:30:33;;;;;;;6.68;2.60;;;;;;;12.39;94.35;101216.72;700790;28;1186;-45
2022/06/13 01:30:53;;;;;;;4.82;2.45;;;;;;;12.37;94.79;101213.25;700672;28;1146;-45
2022/06/13 01:31:32;;;;;;;6.63;2.90;;;;;;;12.31;95.25;101219.38;699518;28;784;-44
2022/06/13 01:32:15;;;;;;;6.10;2.80;;;;;;;12.32;93.59;101215.88;700303;28;5189;-43
2022/06/13 01:32:53;;;;;;;6.95;2.70;;;;;;;12.39;94.33;101224.59;700313;28;1697;-45
2022/06/13 01:33:21;;;;;;;5.30;2.70;;;;;;;12.37;96.05;101219.34;701262;28;1277;-44
2022/06/13 01:34:06;;;;;;;5.43;2.78;;;;;;;12.38;95.31;101225.50;699400;28;1297;-44
2022/06/13 01:34:50;;;;;;;5.93;2.75;;;;;;;12.47;93.19;101233.31;700999;28;1435;-45
2022/06/13 01:35:32;;;;;;;5.32;2.75;;;;;;;12.50;93.09;101229.78;698428;28;5614;-44
2022/06/13 01:35:55;;;;;;;6.63;2.90;;;;;;;12.49;93.02;101230.66;698688;28;1178;-46
2022/06/13 01:36:24;;;;;;;6.70;3.17;;;;;;;12.41;94.81;101221.09;697949;28;1344;-44
2022/06/13 01:37:09;;;;;;;6.68;2.95;;;;;;;12.41;93.80;101230.72;697383;28;1057;-44
2022/06/13 01:37:45;;;;;;;5.82;2.60;;;;;;;12.34;94.83;101232.47;700991;28;1093;-44
2022/06/13 01:38:34;;;;;;;6.45;2.83;;;;;;;12.27;95.05;101234.25;701018;28;4337;-45
2022/06/13 01:39:21;;;;;;;6.65;3.28;;;;;;;12.25;94.34;101229.88;700321;28;1306;-44
2022/06/13 01:40:04;;;;;;;6.78;2.80;;;;;;;12.27;95.46;101233.38;699461;28;1424;-44
2022/06/13 01:40:46;;;;;;;7.50;2.83;;;;;;;12.23;95.85;101231.63;700986;28;1616;-44
2022/06/13 01:41:22;;;;;;;6.53;2.72;;;;;;;12.19;97.06;101236.00;700429;28;4425;-45
2022/06/13 01:42:01;;;;;;;7.00;3.00;;;;;;;12.15;97.01;101236.88;701000;28;943;-44
2022/06/13 01:42:38;;;;;;;6.38;2.80;;;;;;;12.22;95.58;101233.38;701469;28;1312;-45
2022/06/13 01:43:09;;;;;;;6.60;2.80;;;;;;;12.33;94.76;101238.59;700021;28;1267;-45
2022/06/13 01:44:11;;;;;;;5.82;2.80;;;;;;;12.37;93.77;101231.59;700798;28;1360;-45
2022/06/13 01:44:49;;;;;;;8.98;3.20;;;;;;;12.42;94.18;101242.97;689230;28;4785;-44
2022/06/13 01:45:20;;;;;;;5.22;2.70;;;;;;;12.40;94.35;101244.69;689554;28;1385;-44
2022/06/13 01:45:50;;;;;;;6.20;2.40;;;;;;;12.40;93.05;101242.06;690106;28;1394;-44
2022/06/13 01:46:20;;;;;;;6.20;2.78;;;;;;;12.42;94.50;101245.56;692211;28;1381;-44
2022/06/13 01:47:03;;;;;;;6.10;2.72;;;;;;;12.37;94.41;101242.94;697498;28;1281;-45
2022/06/13 01:47:45;;;;;;;6.68;2.95;;;;;;;12.25;96.17;101236.00;698278;28;4991;-45
2022/06/13 01:48:19;;;;;;;5.97;2.80;;;;;;;12.19;96.61;101241.25;697449;28;982;-47
2022/06/13 01:48:58;;;;;;;7.82;2.90;;;;;;;12.13;96.16;101241.28;700240;28;717;-46
2022/06/13 01:49:37;;;;;;;4.97;2.58;;;;;;;12.08;96.38;101240.41;700889;28;1253;-45
2022/06/13 01:50:22;;;;;;;6.75;2.83;;;;;;;12.05;97.00;101237.78;700603;28;4376;-45
2022/06/13 01:51:04;;;;;;;7.63;2.80;;;;;;;12.09;95.59;101245.63;700782;28;1369;-44
2022/06/13 01:51:30;;;;;;;5.03;2.53;;;;;;;12.11;95.83;101237.78;700352;28;899;-45
2022/06/13 01:52:11;;;;;;;5.97;2.70;;;;;;;12.21;95.36;101241.25;700616;28;1150;-46
2022/06/13 01:52:50;;;;;;;5.75;2.75;;;;;;;12.17;96.41;101243.00;701560;28;1411;-45
2022/06/13 01:53:56;;;;;;;5.30;2.80;;;;;;;12.17;96.04;101237.78;699908;28;4302;-44
2022/06/13 01:54:45;;;;;;;5.75;2.70;;;;;;;12.17;95.14;101239.50;692897;28;1502;-44
2022/06/13 01:55:44;;;;;;;7.65;3.08;;;;;;;12.25;95.20;101246.50;693178;28;1473;-45
2022/06/13 01:56:10;;;;;;;5.20;2.60;;;;;;;12.11;97.39;101250.88;692460;28;4517;-45
2022/06/13 01:56:39;;;;;;;5.72;2.88;;;;;;;12.06;97.25;101250.03;692397;28;1389;-44
2022/06/13 01:57:39;;;;;;;6.25;3.00;;;;;;;11.98;96.78;101246.53;692937;28;935;-44
2022/06/13 01:58:21;;;;;;;6.57;3.33;;;;;;;11.98;96.87;101243.94;689799;28;2012;-45
2022/06/13 01:59:00;;;;;;;6.05;2.70;;;;;;;12.08;95.75;101243.03;691057;28;1322;-44
2022/06/13 01:59:31;;;;;;;5.35;2.95;;;;;;;12.09;95.87;101250.03;691841;28;4930;-46
2022/06/13 02:00:06;;;;;;;5.35;2.55;;;;;;;12.13;95.31;101251.75;693069;28;1543;-45
2022/06/13 02:00:30;;;;;;;5.50;3.00;;;;;;;12.12;97.39;101247.38;700129;28;1029;-45
2022/06/13 02:00:59;;;;;;;5.28;2.83;;;;;;;12.12;96.83;101252.63;699210;28;1229;-45
2022/06/13 02:01:38;;;;;;;6.25;2.85;;;;;;;12.09;96.54;101252.63;699649;28;1400;-45
2022/06/13 02:02:07;;;;;;;5.82;2.50;;;;;;;12.12;95.30;101249.16;699761;28;4387;-46
2022/06/13 02:02:49;;;;;;;5.25;2.50;;;;;;;12.16;95.09;101251.75;697246;28;1348;-44
2022/06/13 02:03:19;;;;;;;5.50;2.50;;;;;;;12.22;95.53;101251.72;701591;28;1317;-44
2022/06/13 02:03:47;;;;;;;6.30;2.72;;;;;;;12.24;95.62;101251.75;698298;28;1329;-45
2022/06/13 02:04:08;;;;;;;5.15;2.85;;;;;;;12.22;95.14;101249.09;696019;28;1373;-44
2022/06/13 02:04:43;;;;;;;4.67;2.57;;;;;;;12.19;95.80;101253.50;696224;28;1198;-44
2022/06/13 02:05:36;;;;;;;6.22;2.70;;;;;;;12.17;94.91;101257.84;694890;28;4879;-44
2022/06/13 02:06:02;;;;;;;6.85;2.70;;;;;;;12.10;95.58;101254.34;694441;28;1066;-45
2022/06/13 02:06:28;;;;;;;5.47;2.50;;;;;;;12.10;95.00;101256.97;694502;28;1314;-44
2022/06/13 02:07:06;;;;;;;5.25;2.60;;;;;;;12.12;94.22;101262.25;695727;28;900;-45
2022/06/13 02:07:33;;;;;;;5.63;2.40;;;;;;;12.11;95.34;101258.72;694873;28;1352;-44
2022/06/13 02:08:04;;;;;;;5.85;3.00;;;;;;;12.09;95.57;101257.88;699143;28;4326;-45
2022/06/13 02:08:41;;;;;;;5.70;2.58;;;;;;;12.05;96.81;101256.13;702191;28;1494;-44
2022/06/13 02:09:07;;;;;;;5.43;2.72;;;;;;;12.02;96.46;101251.78;703470;28;1403;-46
2022/06/13 02:09:31;;;;;;;5.45;2.80;;;;;;;11.98;97.43;101251.78;700607;28;1170;-44
2022/06/13 02:09:58;;;;;;;7.57;2.97;;;;;;;11.89;97.75;101253.50;700972;28;1243;-46
2022/06/13 02:10:23;;;;;;;5.60;2.72;;;;;;;11.95;96.44;101257.00;699756;28;1158;-44
2022/06/13 02:11:12;;;;;;;4.32;2.60;;;;;;;11.96;97.71;101250.91;694424;28;1487;-44
2022/06/13 02:11:39;;;;;;;5.50;2.88;;;;;;;11.92;96.92;101249.97;695327;28;5059;-45
2022/06/13 02:11:59;;;;;;;4.95;2.50;;;;;;;11.95;96.59;101254.38;697921;28;1114;-45
2022/06/13 02:12:23;;;;;;;5.13;2.50;;;;;;;11.93;96.50;101260.50;696575;28;1309;-46
2022/06/13 02:12:46;;;;;;;4.90;2.65;;;;;;;12.00;95.96;101250.03;695142;28;1463;-45